首页
METAR-TAF:

METAR-TAF

机场 :

巴耶杜帕尔, 哥伦比亚

纬度: 10-26N, 经度: 073-15W, 海拔: 138米

当前天气观测

该预报发布于46分钟前的02:00 UTC
风速5节,风向
温度 24°C
湿度 94%
气压 1013 hPa
能见度10公里或以上
多云层高于800英尺
散云层高于8000英尺

METAR: SKVP 250200Z 10005KT 9999 BKN008 SCT080 24/23 Q1013

时间: 21:46 (02:46 UTC)


TAF: 丢失

超过4000个机场的气象观测和天气预报(METAR&TAF报告)。

可查询的气象台以黄色和红色小点在地图上表示。

将鼠标移到小点上方,可查看气象台名称。

然后点击查看天气观测和预报。

如需切换地图:点击带黑十字的绿色按钮放大地图;点击带横线的绿色按钮缩小地图;或者点击绿色箭头查看邻近地区的地图。


METAR-TAF: